Time;durP1;ratioP1;P1;durP2;ratioP2;P2;SDS_P1;SDS_P2;PMS_P1;PMS_P2;Temp;Humidity;BMP_temperature;BMP_pressure;BME280_temperature;BME280_humidity;BME280_pressure;Samples;Min_cycle;Max_cycle;Signal;HPM_P1;HPM_P2
2021/08/01 00:01:23;;;;;;;1.40;1.27;;;25.00;48.20;;;;;;5052694;28;20033;-56
2021/08/01 00:03:50;;;;;;;1.58;1.17;;;25.00;48.20;;;;;;5052464;28;20036;-59
2021/08/01 00:06:16;;;;;;;1.88;1.23;;;25.00;48.30;;;;;;5052947;28;20021;-58
2021/08/01 00:08:41;;;;;;;1.95;1.40;;;25.00;48.30;;;;;;5035694;28;20098;-58
2021/08/01 00:11:07;;;;;;;1.30;1.15;;;25.00;48.30;;;;;;5034668;28;20056;-55
2021/08/01 00:13:33;;;;;;;1.40;1.30;;;25.00;48.40;;;;;;5053061;28;20029;-61
2021/08/01 00:16:00;;;;;;;1.40;1.10;;;25.00;48.40;;;;;;5052074;28;20352;-58
2021/08/01 00:18:26;;;;;;;1.77;1.30;;;25.00;48.40;;;;;;5052734;28;20194;-57
2021/08/01 00:20:52;;;;;;;1.45;1.20;;;24.90;48.30;;;;;;5052811;28;20112;-61
2021/08/01 00:23:18;;;;;;;1.40;1.23;;;24.90;48.30;;;;;;5053421;28;20025;-58
2021/08/01 00:25:43;;;;;;;1.50;1.40;;;24.90;48.30;;;;;;5056774;28;20033;-59
2021/08/01 00:28:09;;;;;;;3.78;1.55;;;24.90;48.30;;;;;;5055902;28;20025;-59
2021/08/01 00:30:35;;;;;;;2.20;1.40;;;24.90;48.40;;;;;;5056417;28;20032;-59
2021/08/01 00:33:01;;;;;;;1.35;1.25;;;24.90;48.40;;;;;;5056598;28;20051;-60
2021/08/01 00:35:27;;;;;;;1.60;1.30;;;24.90;48.50;;;;;;5056857;28;20108;-58
2021/08/01 00:37:53;;;;;;;1.70;1.50;;;24.90;48.50;;;;;;5055612;28;20068;-60
2021/08/01 00:40:20;;;;;;;1.38;1.27;;;24.90;48.50;;;;;;5056465;28;20029;-54
2021/08/01 00:42:47;;;;;;;1.92;1.50;;;24.90;48.60;;;;;;5038106;28;20094;-58
2021/08/01 00:45:13;;;;;;;1.38;1.20;;;24.90;48.60;;;;;;5038338;28;20041;-59
2021/08/01 00:47:42;;;;;;;1.60;1.17;;;24.80;48.60;;;;;;5037646;28;20041;-56
2021/08/01 00:50:10;;;;;;;1.50;1.40;;;24.80;48.60;;;;;;5038027;28;20045;-60
2021/08/01 00:52:37;;;;;;;2.78;1.40;;;24.80;48.60;;;;;;5038409;28;20029;-61
2021/08/01 00:55:09;;;;;;;1.95;1.40;;;24.80;48.60;;;;;;5038594;28;20082;-58
2021/08/01 00:57:36;;;;;;;1.42;1.30;;;24.80;48.70;;;;;;5037942;28;20037;-60
2021/08/01 01:00:05;;;;;;;1.85;1.25;;;24.80;48.70;;;;;;5055578;28;20025;-57
2021/08/01 01:02:42;;;;;;;1.40;1.30;;;24.80;48.70;;;;;;5033878;28;20456;-61
2021/08/01 01:05:34;;;;;;;1.48;1.20;;;24.80;48.70;;;;;;5037677;28;20429;-56
2021/08/01 01:08:18;;;;;;;1.20;1.10;;;24.80;48.70;;;;;;5055463;28;20100;-59
2021/08/01 01:11:13;;;;;;;1.20;1.10;;;24.80;48.70;;;;;;5021747;28;20049;-57
2021/08/01 01:13:45;;;;;;;1.40;1.30;;;24.70;48.70;;;;;;5033441;28;20056;-60
2021/08/01 01:16:11;;;;;;;1.42;1.30;;;24.80;48.80;;;;;;5035425;28;20395;-57
2021/08/01 01:18:46;;;;;;;1.67;1.30;;;24.70;48.70;;;;;;5035204;28;20128;-62
2021/08/01 01:21:17;;;;;;;1.67;1.30;;;24.70;48.70;;;;;;5034410;28;20127;-58
2021/08/01 01:23:52;;;;;;;1.17;1.05;;;24.70;48.80;;;;;;5033968;28;20538;-57
2021/08/01 01:26:44;;;;;;;1.10;0.95;;;24.70;48.80;;;;;;5029523;28;20038;-59
2021/08/01 01:29:16;;;;;;;1.30;1.20;;;24.70;48.80;;;;;;5034337;28;20033;-59
2021/08/01 01:32:00;;;;;;;1.60;1.40;;;24.70;48.80;;;;;;5033222;28;20037;-59
2021/08/01 01:34:44;;;;;;;1.20;1.10;;;24.70;48.70;;;;;;5034233;28;20029;-59
2021/08/01 01:37:13;;;;;;;1.23;1.13;;;24.70;48.70;;;;;;5034731;28;20445;-58
2021/08/01 01:39:41;;;;;;;1.85;1.38;;;24.60;48.70;;;;;;5035420;28;20108;-59
2021/08/01 01:42:13;;;;;;;1.65;1.30;;;24.70;48.80;;;;;;5035300;28;20047;-59
2021/08/01 01:44:47;;;;;;;1.38;1.20;;;24.60;48.70;;;;;;5033802;28;20314;-59
2021/08/01 01:47:15;;;;;;;1.88;1.10;;;24.60;48.70;;;;;;5033723;28;20026;-58
2021/08/01 01:49:42;;;;;;;1.33;1.15;;;24.60;48.70;;;;;;5033742;28;20032;-58
2021/08/01 01:52:14;;;;;;;1.80;1.15;;;24.60;48.70;;;;;;5033967;28;20471;-59
2021/08/01 01:54:45;;;;;;;1.17;1.05;;;24.60;48.70;;;;;;5033673;28;20120;-59
2021/08/01 01:57:13;;;;;;;1.30;1.17;;;24.60;48.70;;;;;;5034699;28;20441;-60
2021/08/01 01:59:39;;;;;;;1.27;1.17;;;24.60;48.70;;;;;;5034545;28;20029;-58
2021/08/01 02:02:09;;;;;;;1.75;1.20;;;24.60;48.70;;;;;;5033666;28;20025;-60
2021/08/01 02:04:37;;;;;;;1.58;1.48;;;24.60;48.70;;;;;;5035053;28;20033;-60
2021/08/01 02:07:21;;;;;;;1.40;1.17;;;24.60;48.70;;;;;;5034179;28;20041;-59
2021/08/01 02:10:46;;;;;;;1.17;1.08;;;24.60;48.70;;;;;;5033839;28;20122;-59
2021/08/01 02:13:17;;;;;;;1.08;0.98;;;24.60;48.70;;;;;;5021208;28;20053;-57
2021/08/01 02:15:48;;;;;;;1.10;1.00;;;24.50;48.70;;;;;;5032882;28;20171;-57
2021/08/01 02:18:27;;;;;;;1.33;1.20;;;24.50;48.70;;;;;;5032659;28;20132;-59
2021/08/01 02:20:55;;;;;;;1.83;1.13;;;24.60;48.80;;;;;;5033120;28;20068;-58
2021/08/01 02:23:39;;;;;;;1.52;1.20;;;24.60;48.80;;;;;;5033434;28;20123;-61
2021/08/01 02:26:08;;;;;;;1.55;1.20;;;24.50;48.80;;;;;;5033100;28;20034;-59
2021/08/01 02:28:36;;;;;;;1.65;1.38;;;24.50;48.80;;;;;;5033069;28;20025;-59
2021/08/01 02:31:03;;;;;;;1.58;1.40;;;24.50;48.80;;;;;;5034173;28;20060;-57
2021/08/01 02:33:33;;;;;;;1.27;1.17;;;24.50;48.80;;;;;;5032931;28;20025;-56
2021/08/01 02:36:20;;;;;;;1.35;1.25;;;24.50;48.80;;;;;;5033604;28;20400;-56
2021/08/01 02:38:52;;;;;;;1.60;1.00;;;24.50;48.80;;;;;;5033956;28;20111;-58
2021/08/01 02:41:25;;;;;;;1.73;1.20;;;24.50;48.80;;;;;;5032973;28;20029;-59
2021/08/01 02:43:52;;;;;;;1.73;1.50;;;24.50;48.80;;;;;;5032156;28;20030;-57
2021/08/01 02:46:24;;;;;;;1.40;1.20;;;24.40;48.80;;;;;;5032321;28;20140;-58
2021/08/01 02:48:54;;;;;;;1.20;1.10;;;24.50;48.90;;;;;;5032223;28;20395;-60
2021/08/01 02:51:21;;;;;;;1.40;1.20;;;24.50;48.90;;;;;;5032776;28;20116;-59
2021/08/01 02:53:51;;;;;;;1.52;1.42;;;24.40;48.80;;;;;;5033966;28;20025;-57
2021/08/01 02:56:22;;;;;;;2.38;1.60;;;24.40;48.90;;;;;;5014445;28;20401;-60
2021/08/01 02:58:50;;;;;;;1.50;1.30;;;24.40;48.90;;;;;;5017396;28;20072;-60
2021/08/01 03:01:16;;;;;;;1.23;1.05;;;24.40;48.90;;;;;;5033563;28;20055;-59
2021/08/01 03:03:44;;;;;;;1.67;1.30;;;24.40;48.90;;;;;;5032434;28;20116;-58
2021/08/01 03:06:10;;;;;;;1.20;1.10;;;24.40;49.00;;;;;;5033541;28;20033;-60
2021/08/01 03:08:36;;;;;;;1.85;1.10;;;24.40;49.00;;;;;;5029004;28;20030;-60
2021/08/01 03:11:02;;;;;;;1.52;1.20;;;24.40;49.00;;;;;;5036461;28;20325;-58
2021/08/01 03:13:28;;;;;;;1.00;0.93;;;24.40;49.00;;;;;;5053614;28;20033;-59
2021/08/01 03:15:55;;;;;;;1.33;1.00;;;24.40;49.00;;;;;;5035543;28;20031;-53
2021/08/01 03:18:22;;;;;;;1.52;1.20;;;24.40;49.10;;;;;;5035333;28;20033;-57
2021/08/01 03:20:48;;;;;;;1.48;1.15;;;24.40;49.10;;;;;;5053768;28;20061;-60
2021/08/01 03:23:34;;;;;;;1.63;1.13;;;24.40;49.20;;;;;;5052635;28;20064;-57
2021/08/01 03:26:22;;;;;;;1.35;1.20;;;24.40;49.20;;;;;;5053268;28;20037;-55
2021/08/01 03:28:48;;;;;;;1.20;1.10;;;24.40;49.20;;;;;;5034947;28;20459;-56
2021/08/01 03:31:14;;;;;;;1.30;1.20;;;24.40;49.30;;;;;;5035217;28;20441;-60
2021/08/01 03:33:43;;;;;;;1.50;1.15;;;24.30;49.20;;;;;;5034893;28;20378;-59
2021/08/01 03:36:08;;;;;;;0.82;0.80;;;24.40;49.30;;;;;;5053318;28;20025;-55
2021/08/01 03:38:53;;;;;;;1.13;0.98;;;24.40;49.30;;;;;;5053725;28;20060;-59
2021/08/01 03:41:37;;;;;;;1.50;1.23;;;24.30;49.30;;;;;;5052929;28;20043;-58
2021/08/01 03:44:06;;;;;;;1.00;0.90;;;24.30;49.40;;;;;;5035175;28;20094;-60
2021/08/01 03:46:32;;;;;;;1.77;1.40;;;24.30;49.40;;;;;;5053114;28;20040;-60
2021/08/01 03:48:58;;;;;;;1.10;1.00;;;24.30;49.40;;;;;;5052914;28;20033;-60
2021/08/01 03:51:24;;;;;;;1.15;1.05;;;24.30;49.50;;;;;;5053012;28;20060;-56
2021/08/01 03:53:49;;;;;;;1.27;1.17;;;24.30;49.50;;;;;;5053006;28;20131;-58
2021/08/01 03:56:15;;;;;;;2.15;1.20;;;24.30;49.50;;;;;;5052500;28;20124;-57
2021/08/01 03:58:41;;;;;;;1.30;0.98;;;24.30;49.50;;;;;;5054731;28;20037;-57
2021/08/01 04:01:07;;;;;;;2.75;1.30;;;24.30;49.60;;;;;;5057290;28;20064;-57
2021/08/01 04:03:33;;;;;;;1.55;1.20;;;24.30;49.60;;;;;;5039463;28;20033;-56
2021/08/01 04:05:58;;;;;;;1.95;1.20;;;24.30;49.60;;;;;;5057169;28;20443;-58
2021/08/01 04:08:24;;;;;;;1.10;1.00;;;24.30;49.60;;;;;;5053175;28;20167;-57
2021/08/01 04:10:50;;;;;;;1.30;1.00;;;24.30;49.60;;;;;;5048072;28;20068;-56
2021/08/01 04:13:16;;;;;;;1.52;1.13;;;24.30;49.70;;;;;;5038921;28;20025;-54
2021/08/01 04:15:46;;;;;;;1.25;1.00;;;24.30;49.70;;;;;;5056702;28;20040;-58
2021/08/01 04:18:13;;;;;;;1.73;0.98;;;24.30;49.70;;;;;;5056123;28;20056;-61
2021/08/01 04:20:39;;;;;;;1.20;1.02;;;24.30;49.70;;;;;;5056628;28;20344;-59
2021/08/01 04:23:05;;;;;;;1.67;0.95;;;24.30;49.70;;;;;;5056408;28;20029;-59
2021/08/01 04:25:31;;;;;;;1.70;1.10;;;24.30;49.70;;;;;;5056409;28;20515;-58
2021/08/01 04:27:57;;;;;;;1.38;1.10;;;24.30;49.80;;;;;;5056212;28;20104;-58
2021/08/01 04:30:23;;;;;;;1.98;1.20;;;24.30;49.80;;;;;;5056625;28;20052;-56
2021/08/01 04:32:48;;;;;;;1.27;1.10;;;24.30;49.80;;;;;;5055988;28;20029;-56
2021/08/01 04:35:14;;;;;;;1.10;1.00;;;24.30;49.90;;;;;;5056337;28;20435;-58
2021/08/01 04:37:40;;;;;;;1.27;0.90;;;24.30;49.90;;;;;;5055901;28;20045;-58
2021/08/01 04:40:06;;;;;;;1.42;1.00;;;24.20;49.80;;;;;;5056497;28;20424;-58
2021/08/01 04:42:32;;;;;;;2.30;1.10;;;24.30;49.90;;;;;;5056015;28;20041;-55
2021/08/01 04:44:58;;;;;;;1.15;1.00;;;24.30;49.90;;;;;;5056027;28;20092;-57
2021/08/01 04:47:24;;;;;;;1.15;1.00;;;24.20;50.50;;;;;;5056168;28;20112;-60
2021/08/01 04:49:51;;;;;;;1.65;1.10;;;24.20;49.90;;;;;;5056119;28;20024;-57
2021/08/01 04:52:19;;;;;;;1.33;1.00;;;24.20;49.90;;;;;;5037816;28;20235;-56
2021/08/01 04:54:45;;;;;;;1.10;0.90;;;24.30;50.00;;;;;;5055715;28;20029;-60
2021/08/01 04:57:11;;;;;;;1.42;1.00;;;24.20;49.90;;;;;;5055647;28;20025;-57
2021/08/01 04:59:37;;;;;;;1.00;0.85;;;24.20;50.00;;;;;;5049529;28;20029;-56
2021/08/01 05:02:03;;;;;;;1.00;0.90;;;24.20;50.00;;;;;;5040684;28;20328;-57
2021/08/01 05:04:29;;;;;;;1.33;1.00;;;24.20;50.00;;;;;;5055591;28;20079;-59
2021/08/01 05:06:55;;;;;;;1.67;1.20;;;24.20;50.00;;;;;;5055765;28;20029;-61
2021/08/01 05:09:21;;;;;;;2.10;1.52;;;24.20;50.00;;;;;;5054796;28;20029;-59
2021/08/01 05:11:47;;;;;;;1.00;0.90;;;24.20;50.00;;;;;;5055099;28;20206;-56
2021/08/01 05:14:13;;;;;;;1.30;1.00;;;24.20;50.10;;;;;;5055422;28;20037;-58
2021/08/01 05:16:40;;;;;;;1.52;1.40;;;24.20;50.10;;;;;;5055499;28;20033;-56
2021/08/01 05:19:06;;;;;;;2.28;1.35;;;24.20;50.10;;;;;;5055554;28;20435;-55
2021/08/01 05:21:32;;;;;;;1.73;1.17;;;24.20;50.10;;;;;;5054946;28;20132;-60
2021/08/01 05:23:57;;;;;;;1.35;1.00;;;24.20;50.10;;;;;;5055530;28;20384;-60
2021/08/01 05:26:23;;;;;;;2.15;1.20;;;24.20;50.10;;;;;;5055647;28;20064;-55
2021/08/01 05:28:49;;;;;;;2.05;1.35;;;24.20;50.20;;;;;;5055251;28;20443;-58
2021/08/01 05:31:15;;;;;;;1.67;1.25;;;24.20;50.20;;;;;;5037398;28;20039;-58
2021/08/01 05:33:41;;;;;;;2.97;1.20;;;24.20;50.20;;;;;;5055051;28;20035;-58
2021/08/01 05:36:08;;;;;;;1.90;1.30;;;24.20;50.20;;;;;;5055236;28;20024;-60
2021/08/01 05:38:34;;;;;;;1.67;1.30;;;24.20;50.20;;;;;;5055350;28;20036;-58
2021/08/01 05:41:00;;;;;;;1.83;1.00;;;24.20;50.20;;;;;;5055224;28;20045;-59
2021/08/01 05:43:26;;;;;;;1.08;0.98;;;24.20;50.20;;;;;;5054713;28;20033;-58
2021/08/01 05:45:52;;;;;;;2.10;1.45;;;24.20;50.30;;;;;;5055317;28;20025;-59
2021/08/01 05:48:17;;;;;;;1.38;1.02;;;24.20;50.30;;;;;;5054775;28;20025;-59
2021/08/01 05:50:43;;;;;;;2.42;1.38;;;24.20;50.30;;;;;;5055018;28;20036;-60
2021/08/01 05:53:09;;;;;;;2.65;1.67;;;24.20;50.30;;;;;;5054626;28;20471;-57
2021/08/01 05:55:35;;;;;;;3.17;1.80;;;24.20;50.30;;;;;;5054957;28;20100;-58
2021/08/01 05:58:00;;;;;;;2.67;1.63;;;24.20;50.30;;;;;;5036821;28;20127;-53
2021/08/01 06:00:27;;;;;;;2.53;1.90;;;24.20;50.40;;;;;;5054739;28;20441;-55
2021/08/01 06:02:54;;;;;;;3.05;1.77;;;24.20;50.30;;;;;;5053225;28;20051;-57
2021/08/01 06:05:19;;;;;;;2.35;1.70;;;24.20;50.40;;;;;;5054981;28;20037;-55
2021/08/01 06:07:45;;;;;;;2.55;2.05;;;24.20;50.40;;;;;;5019551;28;20025;-60
2021/08/01 06:10:11;;;;;;;2.10;1.65;;;24.20;50.40;;;;;;5054793;28;20429;-58
2021/08/01 06:12:37;;;;;;;2.97;1.95;;;24.20;50.40;;;;;;5053742;28;20441;-57
2021/08/01 06:15:04;;;;;;;2.05;1.75;;;24.20;50.40;;;;;;5036913;28;20029;-59
2021/08/01 06:17:29;;;;;;;3.20;1.95;;;24.20;50.50;;;;;;5053815;28;20439;-57
2021/08/01 06:19:56;;;;;;;2.22;1.92;;;24.20;50.50;;;;;;5054041;28;20104;-58
2021/08/01 06:22:23;;;;;;;3.28;2.55;;;24.20;50.50;;;;;;5053803;28;20091;-60
2021/08/01 06:24:49;;;;;;;3.17;2.08;;;24.20;50.50;;;;;;5054448;28;20033;-59
2021/08/01 06:27:14;;;;;;;2.53;2.15;;;24.20;50.60;;;;;;5054450;28;20075;-59
2021/08/01 06:29:40;;;;;;;2.95;2.20;;;24.20;50.60;;;;;;5053068;28;20086;-59
2021/08/01 06:32:06;;;;;;;2.58;2.33;;;24.20;50.60;;;;;;5054219;28;20355;-56
2021/08/01 06:34:32;;;;;;;2.72;2.50;;;24.20;50.60;;;;;;5054180;28;20040;-56
2021/08/01 06:36:58;;;;;;;3.08;2.40;;;24.20;50.60;;;;;;5054034;28;20068;-58
2021/08/01 06:39:23;;;;;;;2.65;2.25;;;24.20;50.70;;;;;;5054495;28;20059;-60
2021/08/01 06:41:49;;;;;;;3.17;2.25;;;24.20;50.70;;;;;;5053577;28;20021;-56
2021/08/01 06:44:15;;;;;;;2.95;2.55;;;24.20;50.70;;;;;;5053906;28;20032;-59
2021/08/01 06:46:41;;;;;;;2.90;2.60;;;24.20;50.70;;;;;;5036003;28;20060;-60
2021/08/01 06:49:06;;;;;;;4.38;2.63;;;24.20;50.80;;;;;;5053733;28;20475;-59
2021/08/01 06:51:32;;;;;;;4.47;2.97;;;24.20;50.80;;;;;;5054286;28;20433;-57
2021/08/01 06:53:58;;;;;;;4.20;2.30;;;24.20;50.80;;;;;;5035944;28;20504;-59
2021/08/01 06:56:24;;;;;;;3.58;3.03;;;24.20;50.80;;;;;;5053825;28;20368;-59
2021/08/01 06:58:49;;;;;;;3.53;2.75;;;24.20;51.40;;;;;;5053318;28;20449;-59
2021/08/01 07:01:15;;;;;;;3.33;2.80;;;24.20;50.80;;;;;;5053087;28;20158;-62
2021/08/01 07:03:41;;;;;;;5.53;3.20;;;24.20;50.80;;;;;;5031149;28;20055;-62
2021/08/01 07:06:10;;;;;;;4.30;2.80;;;24.20;50.80;;;;;;5048616;28;20044;-61
2021/08/01 07:08:37;;;;;;;4.78;3.30;;;24.20;50.90;;;;;;5042203;28;20029;-60
2021/08/01 07:11:03;;;;;;;3.00;2.50;;;24.20;50.90;;;;;;5051533;28;20097;-61
2021/08/01 07:13:29;;;;;;;4.07;2.80;;;24.20;50.90;;;;;;5047945;28;20147;-61
2021/08/01 07:16:00;;;;;;;3.83;2.88;;;24.20;50.90;;;;;;5043936;28;20534;-61
2021/08/01 07:18:26;;;;;;;3.80;2.88;;;24.20;51.00;;;;;;5048004;28;20041;-58
2021/08/01 07:20:52;;;;;;;3.42;2.83;;;24.20;51.00;;;;;;5045628;28;20036;-60
2021/08/01 07:23:18;;;;;;;4.07;2.97;;;24.20;50.90;;;;;;5047267;28;20037;-61
2021/08/01 07:25:43;;;;;;;4.07;2.63;;;24.30;50.90;;;;;;5033786;28;20116;-61
2021/08/01 07:28:09;;;;;;;4.05;2.92;;;24.30;50.90;;;;;;5052974;28;20329;-59
2021/08/01 07:30:35;;;;;;;5.63;3.08;;;24.30;50.70;;;;;;5051469;28;20040;-61
2021/08/01 07:33:01;;;;;;;3.17;2.80;;;24.40;50.70;;;;;;5051597;28;20804;-61
2021/08/01 07:35:27;;;;;;;3.78;2.85;;;24.40;50.60;;;;;;5053288;28;20048;-61
2021/08/01 07:37:53;;;;;;;4.25;2.90;;;24.40;50.60;;;;;;5055296;28;20045;-62
2021/08/01 07:40:19;;;;;;;4.03;3.00;;;24.50;50.60;;;;;;5052848;28;20037;-62
2021/08/01 07:42:45;;;;;;;4.30;3.38;;;24.50;50.50;;;;;;5052349;28;20043;-62
2021/08/01 07:45:23;;;;;;;5.22;3.60;;;24.50;50.50;;;;;;5052247;28;20104;-61
2021/08/01 07:47:49;;;;;;;4.85;4.07;;;24.50;50.40;;;;;;5051931;28;20064;-60
2021/08/01 07:50:14;;;;;;;3.97;3.05;;;24.50;50.40;;;;;;5052560;28;20082;-58
2021/08/01 07:52:40;;;;;;;4.80;3.60;;;24.60;50.40;;;;;;5052031;28;20381;-61
2021/08/01 07:55:08;;;;;;;3.28;2.90;;;24.60;50.40;;;;;;5052811;28;20025;-60
2021/08/01 07:57:34;;;;;;;4.20;3.35;;;24.60;50.40;;;;;;5051997;28;20083;-59
2021/08/01 08:00:04;;;;;;;5.10;3.60;;;24.60;50.40;;;;;;5051947;28;20059;-61
2021/08/01 08:02:39;;;;;;;4.95;3.88;;;24.60;50.40;;;;;;5050125;28;20056;-60
2021/08/01 08:05:06;;;;;;;5.35;3.75;;;24.70;50.40;;;;;;5052586;28;20033;-60
2021/08/01 08:07:32;;;;;;;4.65;3.80;;;24.70;50.40;;;;;;5052414;28;20041;-62
2021/08/01 08:09:58;;;;;;;4.80;3.65;;;24.70;50.40;;;;;;5050544;28;20428;-61
2021/08/01 08:12:24;;;;;;;4.55;3.45;;;24.70;50.30;;;;;;5016708;28;20080;-59
2021/08/01 08:14:51;;;;;;;5.03;4.00;;;24.70;50.30;;;;;;5052372;28;20032;-61
2021/08/01 08:17:17;;;;;;;4.65;3.45;;;24.70;50.30;;;;;;5051502;28;20041;-60
2021/08/01 08:19:43;;;;;;;5.80;4.00;;;24.70;50.30;;;;;;5051976;28;20044;-60
2021/08/01 08:22:10;;;;;;;5.38;4.15;;;24.80;50.30;;;;;;5051946;28;20033;-61
2021/08/01 08:24:37;;;;;;;5.72;4.32;;;24.80;50.30;;;;;;5051313;28;20056;-60
2021/08/01 08:27:04;;;;;;;5.80;3.97;;;24.80;50.20;;;;;;5051656;28;20056;-61
2021/08/01 08:29:30;;;;;;;6.28;3.80;;;24.80;50.20;;;;;;5052053;28;20104;-61
2021/08/01 08:31:56;;;;;;;5.07;4.07;;;24.80;50.20;;;;;;5061222;28;20104;-60
2021/08/01 08:34:23;;;;;;;5.57;4.43;;;24.80;50.20;;;;;;5050593;28;20037;-59
2021/08/01 08:36:51;;;;;;;4.78;4.13;;;24.80;50.10;;;;;;5050737;28;20021;-59
2021/08/01 08:39:21;;;;;;;5.78;4.72;;;24.80;50.70;;;;;;5051180;28;20033;-60
2021/08/01 08:41:48;;;;;;;6.38;5.20;;;24.80;50.10;;;;;;5032059;28;20044;-55
2021/08/01 08:44:14;;;;;;;5.43;4.40;;;24.80;50.10;;;;;;5051753;28;20029;-59
2021/08/01 08:46:41;;;;;;;8.43;4.63;;;24.80;50.10;;;;;;5054714;28;20029;-59
2021/08/01 08:49:10;;;;;;;6.70;5.20;;;24.80;50.00;;;;;;5055374;28;20032;-59
2021/08/01 08:51:43;;;;;;;7.55;4.65;;;24.80;50.00;;;;;;5055947;28;20037;-59
2021/08/01 08:54:13;;;;;;;6.68;4.97;;;24.90;50.00;;;;;;5055284;28;20028;-58
2021/08/01 08:56:40;;;;;;;7.13;5.35;;;24.80;50.00;;;;;;5055032;28;20117;-61
2021/08/01 08:59:06;;;;;;;6.47;5.22;;;24.90;50.00;;;;;;5054228;28;20041;-58
2021/08/01 09:01:32;;;;;;;5.30;4.75;;;24.90;50.00;;;;;;5054087;28;20464;-55
2021/08/01 09:03:58;;;;;;;6.68;4.85;;;24.80;50.00;;;;;;5054591;28;20029;-56
2021/08/01 09:06:25;;;;;;;7.25;5.30;;;24.90;50.00;;;;;;5055102;28;20040;-59
2021/08/01 09:08:50;;;;;;;6.43;5.20;;;24.90;50.00;;;;;;5054674;28;20691;-60
2021/08/01 09:11:16;;;;;;;6.10;4.97;;;24.90;50.00;;;;;;5052926;28;20053;-59
2021/08/01 09:13:48;;;;;;;6.22;5.53;;;24.90;50.00;;;;;;5054018;28;20175;-58
2021/08/01 09:16:18;;;;;;;7.93;5.97;;;24.90;50.00;;;;;;5054708;28;20040;-54
2021/08/01 09:18:45;;;;;;;10.55;7.50;;;24.90;50.00;;;;;;5053766;28;20029;-56
2021/08/01 09:21:33;;;;;;;16.63;9.68;;;24.90;50.10;;;;;;5049959;28;20031;-58
2021/08/01 09:24:00;;;;;;;16.88;10.77;;;24.90;50.90;;;;;;5052812;28;20025;-56
2021/08/01 09:26:58;;;;;;;18.08;11.75;;;24.90;51.30;;;;;;5052762;28;20166;-59
2021/08/01 09:29:24;;;;;;;15.63;10.07;;;25.00;51.90;;;;;;5021020;28;20073;-52
2021/08/01 09:31:58;;;;;;;16.35;10.27;;;25.00;52.30;;;;;;5053942;28;20413;-56
2021/08/01 09:34:25;;;;;;;15.50;10.35;;;25.10;52.80;;;;;;5053198;28;20025;-61
2021/08/01 09:37:05;;;;;;;15.27;10.43;;;25.10;52.90;;;;;;5053844;28;20043;-51
2021/08/01 09:39:41;;;;;;;15.73;10.75;;;25.10;53.20;;;;;;5053760;28;20178;-55
2021/08/01 09:42:09;;;;;;;19.23;11.60;;;25.20;53.30;;;;;;5050184;28;20037;-55
2021/08/01 09:44:39;;;;;;;19.27;12.48;;;25.10;53.20;;;;;;5053062;28;20437;-58
2021/08/01 09:47:06;;;;;;;14.68;10.25;;;25.20;53.40;;;;;;5051480;28;20392;-55
2021/08/01 09:49:32;;;;;;;15.30;10.15;;;25.20;53.30;;;;;;5052112;28;20112;-51
2021/08/01 09:52:03;;;;;;;16.55;10.70;;;25.20;53.20;;;;;;5052809;28;20059;-56
2021/08/01 09:54:46;;;;;;;12.57;9.18;;;25.30;53.10;;;;;;5049427;28;20441;-56
2021/08/01 09:57:18;;;;;;;11.25;8.88;;;25.30;52.90;;;;;;5052102;28;20036;-52
2021/08/01 09:59:43;;;;;;;14.50;9.90;;;25.30;52.90;;;;;;5051665;28;20075;-51
2021/08/01 10:02:09;;;;;;;14.35;10.02;;;25.30;53.00;;;;;;5052352;28;20075;-52
2021/08/01 10:04:40;;;;;;;12.50;8.88;;;25.30;53.00;;;;;;5052317;28;20033;-59
2021/08/01 10:07:12;;;;;;;15.18;9.52;;;25.40;53.10;;;;;;5050725;28;20079;-55
2021/08/01 10:09:40;;;;;;;12.30;8.95;;;25.40;52.90;;;;;;5052251;28;20017;-55
2021/08/01 10:12:07;;;;;;;15.05;9.82;;;25.40;52.80;;;;;;5051752;28;20059;-54
2021/08/01 10:14:33;;;;;;;11.55;9.00;;;25.40;52.90;;;;;;5048187;28;20021;-56
2021/08/01 10:16:59;;;;;;;11.73;8.55;;;25.40;52.90;;;;;;5052378;28;20444;-60
2021/08/01 10:19:26;;;;;;;12.95;9.32;;;25.50;52.90;;;;;;5052166;28;20045;-56
2021/08/01 10:21:57;;;;;;;18.80;10.15;;;25.50;53.10;;;;;;5041477;28;20459;-61
2021/08/01 10:24:45;;;;;;;12.40;8.73;;;25.50;53.40;;;;;;5051505;28;20025;-62
2021/08/01 10:27:14;;;;;;;13.35;8.63;;;25.60;53.60;;;;;;5050269;28;20408;-60
2021/08/01 10:29:54;;;;;;;10.75;7.88;;;25.60;53.30;;;;;;5052914;28;20036;-58
2021/08/01 10:32:21;;;;;;;11.32;7.85;;;25.60;53.10;;;;;;5050723;28;20033;-61
2021/08/01 10:35:06;;;;;;;12.20;7.60;;;25.60;52.90;;;;;;5052450;28;20420;-62
2021/08/01 10:37:44;;;;;;;11.00;7.13;;;25.70;52.60;;;;;;5033864;28;20029;-59
2021/08/01 10:40:13;;;;;;;7.95;6.38;;;25.70;52.40;;;;;;5051992;28;20059;-61
2021/08/01 10:42:42;;;;;;;7.40;6.28;;;25.60;52.10;;;;;;5032887;28;20025;-60
2021/08/01 10:45:09;;;;;;;7.30;6.07;;;25.70;52.00;;;;;;5051621;28;20119;-62
2021/08/01 10:47:36;;;;;;;9.70;5.90;;;25.70;51.80;;;;;;5047481;28;20025;-49
2021/08/01 10:50:06;;;;;;;12.43;8.10;;;25.70;51.70;;;;;;5051820;28;20344;-55
2021/08/01 10:52:34;;;;;;;14.10;8.43;;;25.70;51.80;;;;;;5051519;28;20025;-55
2021/08/01 10:55:02;;;;;;;16.00;10.45;;;25.70;52.70;;;;;;5051808;28;20033;-55
2021/08/01 10:57:29;;;;;;;12.30;8.82;;;25.80;52.50;;;;;;5051240;28;20039;-54
2021/08/01 10:59:58;;;;;;;13.80;9.30;;;25.70;52.80;;;;;;5050363;28;20036;-58
2021/08/01 11:02:24;;;;;;;15.82;9.48;;;25.80;53.10;;;;;;5051501;28;20044;-54
2021/08/01 11:04:52;;;;;;;12.02;8.52;;;25.80;53.40;;;;;;5051374;28;20426;-57
2021/08/01 11:07:26;;;;;;;12.30;8.25;;;25.80;53.50;;;;;;5051525;28;20043;-56
2021/08/01 11:10:07;;;;;;;11.20;8.27;;;25.80;53.30;;;;;;5051459;28;20064;-60
2021/08/01 11:12:34;;;;;;;8.82;6.95;;;25.80;53.10;;;;;;5050767;28;20045;-61
2021/08/01 11:15:01;;;;;;;10.13;6.35;;;25.80;53.10;;;;;;5050644;28;20032;-60
2021/08/01 11:17:42;;;;;;;9.05;6.10;;;25.80;52.90;;;;;;5048093;28;20510;-55
2021/08/01 11:20:18;;;;;;;8.43;6.70;;;25.80;52.70;;;;;;5050254;28;20029;-62
2021/08/01 11:22:44;;;;;;;6.88;5.88;;;25.80;52.70;;;;;;5048552;28;20058;-57
2021/08/01 11:25:30;;;;;;;7.95;5.93;;;25.80;52.70;;;;;;5040275;28;20111;-57
2021/08/01 11:28:12;;;;;;;7.93;5.85;;;25.80;52.80;;;;;;5014700;28;20112;-54
2021/08/01 11:30:50;;;;;;;7.47;5.72;;;25.80;52.80;;;;;;5049731;28;20025;-56
2021/08/01 11:33:28;;;;;;;8.60;6.07;;;25.90;52.80;;;;;;5051273;28;20087;-58
2021/08/01 11:36:13;;;;;;;7.00;5.63;;;25.80;52.70;;;;;;5032511;28;20061;-58
2021/08/01 11:38:39;;;;;;;;;;;25.80;52.60;;;;;;5050921;28;20135;-57
2021/08/01 11:41:06;;;;;;;4.93;4.38;;;25.80;52.70;;;;;;5050743;28;19912;-58
2021/08/01 11:43:32;;;;;;;5.47;4.57;;;25.80;52.70;;;;;;5051251;28;20028;-57
2021/08/01 11:46:03;;;;;;;6.80;4.70;;;25.80;52.60;;;;;;5050862;28;20021;-56
2021/08/01 11:48:29;;;;;;;5.97;4.72;;;25.80;52.50;;;;;;5050075;28;20120;-58
2021/08/01 11:51:04;;;;;;;4.97;4.13;;;25.80;52.50;;;;;;5048692;28;20075;-57
2021/08/01 11:53:30;;;;;;;4.43;4.03;;;25.80;52.40;;;;;;5050079;28;20033;-57
2021/08/01 11:56:00;;;;;;;5.20;4.20;;;25.80;52.40;;;;;;5050546;28;20029;-54
2021/08/01 11:58:29;;;;;;;5.13;4.50;;;25.80;52.40;;;;;;5032340;28;20376;-58
2021/08/01 12:00:56;;;;;;;4.82;4.18;;;25.80;52.40;;;;;;5050720;28;20373;-60
2021/08/01 12:03:27;;;;;;;4.97;4.13;;;25.70;52.40;;;;;;5030213;28;20107;-59
2021/08/01 12:05:53;;;;;;;4.43;3.90;;;25.80;52.50;;;;;;5050625;28;20041;-58
2021/08/01 12:08:34;;;;;;;5.05;3.88;;;25.80;52.50;;;;;;5050473;28;20025;-58
2021/08/01 12:11:13;;;;;;;4.15;3.75;;;25.70;52.40;;;;;;5050331;28;20056;-59
2021/08/01 12:13:40;;;;;;;4.38;3.58;;;25.70;52.40;;;;;;5050850;28;20069;-58
2021/08/01 12:16:18;;;;;;;5.15;3.95;;;25.70;52.40;;;;;;5048567;28;20045;-60
2021/08/01 12:18:44;;;;;;;4.30;3.50;;;25.70;52.40;;;;;;5050867;28;20041;-56
2021/08/01 12:21:31;;;;;;;3.65;3.20;;;25.70;52.40;;;;;;5052170;28;20506;-59
2021/08/01 12:23:57;;;;;;;3.58;3.05;;;25.70;52.30;;;;;;5054019;28;20052;-60
2021/08/01 12:26:40;;;;;;;3.75;3.30;;;25.70;52.30;;;;;;5055758;28;20048;-60
2021/08/01 12:29:09;;;;;;;3.03;2.70;;;25.70;52.30;;;;;;5054525;28;20043;-59
2021/08/01 12:31:35;;;;;;;3.28;2.92;;;25.70;52.30;;;;;;5054813;28;20041;-58
2021/08/01 12:34:01;;;;;;;2.45;2.25;;;25.70;52.20;;;;;;5054194;28;20043;-60
2021/08/01 12:36:28;;;;;;;2.80;2.40;;;25.70;52.20;;;;;;5053651;28;20025;-61
2021/08/01 12:38:54;;;;;;;2.80;2.38;;;25.70;52.20;;;;;;5053454;28;20045;-57
2021/08/01 12:41:20;;;;;;;2.92;2.30;;;25.70;52.20;;;;;;5054760;28;20063;-59
2021/08/01 12:43:47;;;;;;;3.25;2.60;;;25.70;52.20;;;;;;5053985;28;20025;-58
2021/08/01 12:46:17;;;;;;;3.08;2.55;;;25.70;52.20;;;;;;5054097;28;20364;-59
2021/08/01 12:48:46;;;;;;;3.53;2.40;;;25.70;52.10;;;;;;5053624;28;20360;-57
2021/08/01 12:51:12;;;;;;;2.60;2.00;;;25.70;52.10;;;;;;5054571;28;20063;-57
2021/08/01 12:53:38;;;;;;;2.58;2.15;;;25.70;52.10;;;;;;5054155;28;20028;-56
2021/08/01 12:56:04;;;;;;;3.40;2.30;;;25.70;52.10;;;;;;5052163;28;20063;-61